sensor_id;sensor_type;location;lat;lon;timestamp;temperature;humidity
72277;SHT30;61204;49.980;8.358;2022-09-23T00:01:08;9.89;75.10
72277;SHT30;61204;49.980;8.358;2022-09-23T00:03:38;9.87;75.24
72277;SHT30;61204;49.980;8.358;2022-09-23T00:06:11;9.77;75.26
72277;SHT30;61204;49.980;8.358;2022-09-23T00:08:40;9.73;75.68
72277;SHT30;61204;49.980;8.358;2022-09-23T00:11:10;9.75;75.36
72277;SHT30;61204;49.980;8.358;2022-09-23T00:13:40;9.73;75.23
72277;SHT30;61204;49.980;8.358;2022-09-23T00:16:13;9.65;75.84
72277;SHT30;61204;49.980;8.358;2022-09-23T00:18:42;9.70;75.32
72277;SHT30;61204;49.980;8.358;2022-09-23T00:21:11;9.60;75.90
72277;SHT30;61204;49.980;8.358;2022-09-23T00:23:40;9.43;76.46
72277;SHT30;61204;49.980;8.358;2022-09-23T00:26:10;9.36;76.63
72277;SHT30;61204;49.980;8.358;2022-09-23T00:28:40;9.31;77.19
72277;SHT30;61204;49.980;8.358;2022-09-23T00:31:14;9.31;76.60
72277;SHT30;61204;49.980;8.358;2022-09-23T00:33:43;9.22;77.37
72277;SHT30;61204;49.980;8.358;2022-09-23T00:36:12;9.20;77.70
72277;SHT30;61204;49.980;8.358;2022-09-23T00:38:41;9.21;77.58
72277;SHT30;61204;49.980;8.358;2022-09-23T00:41:10;9.24;77.20
72277;SHT30;61204;49.980;8.358;2022-09-23T00:43:50;9.20;77.11
72277;SHT30;61204;49.980;8.358;2022-09-23T00:46:40;9.08;77.60
72277;SHT30;61204;49.980;8.358;2022-09-23T00:49:16;9.05;78.07
72277;SHT30;61204;49.980;8.358;2022-09-23T00:51:57;8.97;78.48
72277;SHT30;61204;49.980;8.358;2022-09-23T00:54:31;9.01;78.51
72277;SHT30;61204;49.980;8.358;2022-09-23T00:56:58;9.08;78.34
72277;SHT30;61204;49.980;8.358;2022-09-23T00:59:26;9.14;78.24
72277;SHT30;61204;49.980;8.358;2022-09-23T01:01:56;9.11;78.21
72277;SHT30;61204;49.980;8.358;2022-09-23T01:04:27;9.13;78.21
72277;SHT30;61204;49.980;8.358;2022-09-23T01:06:53;9.07;78.57
72277;SHT30;61204;49.980;8.358;2022-09-23T01:09:21;9.05;78.53
72277;SHT30;61204;49.980;8.358;2022-09-23T01:12:23;8.93;78.89
72277;SHT30;61204;49.980;8.358;2022-09-23T01:15:49;8.84;79.54
72277;SHT30;61204;49.980;8.358;2022-09-23T01:18:37;8.83;79.70
72277;SHT30;61204;49.980;8.358;2022-09-23T01:31:49;8.80;79.68
72277;SHT30;61204;49.980;8.358;2022-09-23T01:34:56;8.69;80.08
72277;SHT30;61204;49.980;8.358;2022-09-23T01:37:39;8.60;80.03
72277;SHT30;61204;49.980;8.358;2022-09-23T01:40:36;8.49;80.47
72277;SHT30;61204;49.980;8.358;2022-09-23T01:43:41;8.40;81.06
72277;SHT30;61204;49.980;8.358;2022-09-23T01:46:26;8.30;81.03
72277;SHT30;61204;49.980;8.358;2022-09-23T01:49:08;8.21;81.42
72277;SHT30;61204;49.980;8.358;2022-09-23T01:52:08;8.15;82.05
72277;SHT30;61204;49.980;8.358;2022-09-23T01:55:39;8.15;82.10
72277;SHT30;61204;49.980;8.358;2022-09-23T01:58:19;8.08;82.65
72277;SHT30;61204;49.980;8.358;2022-09-23T02:01:03;8.00;82.60
72277;SHT30;61204;49.980;8.358;2022-09-23T02:03:56;8.05;82.44
72277;SHT30;61204;49.980;8.358;2022-09-23T02:06:39;8.20;82.09
72277;SHT30;61204;49.980;8.358;2022-09-23T02:09:15;8.05;81.99
72277;SHT30;61204;49.980;8.358;2022-09-23T02:11:47;7.98;82.35
72277;SHT30;61204;49.980;8.358;2022-09-23T02:14:29;7.96;82.66
72277;SHT30;61204;49.980;8.358;2022-09-23T02:17:08;7.90;82.78
72277;SHT30;61204;49.980;8.358;2022-09-23T02:19:45;7.85;83.02
72277;SHT30;61204;49.980;8.358;2022-09-23T02:22:29;7.89;83.40
72277;SHT30;61204;49.980;8.358;2022-09-23T02:25:02;7.87;83.61
72277;SHT30;61204;49.980;8.358;2022-09-23T02:27:45;7.97;82.70
72277;SHT30;61204;49.980;8.358;2022-09-23T02:30:28;7.91;83.25
72277;SHT30;61204;49.980;8.358;2022-09-23T02:33:26;7.90;83.51
72277;SHT30;61204;49.980;8.358;2022-09-23T02:36:23;7.97;82.98
72277;SHT30;61204;49.980;8.358;2022-09-23T02:39:04;8.01;82.89
72277;SHT30;61204;49.980;8.358;2022-09-23T02:42:04;8.00;82.77
72277;SHT30;61204;49.980;8.358;2022-09-23T02:44:34;8.08;82.46
72277;SHT30;61204;49.980;8.358;2022-09-23T02:47:01;8.07;82.41
72277;SHT30;61204;49.980;8.358;2022-09-23T02:49:29;8.18;82.16
72277;SHT30;61204;49.980;8.358;2022-09-23T02:52:00;8.18;82.25
72277;SHT30;61204;49.980;8.358;2022-09-23T02:54:30;8.21;82.04
72277;SHT30;61204;49.980;8.358;2022-09-23T02:57:05;8.22;82.20
72277;SHT30;61204;49.980;8.358;2022-09-23T02:59:34;8.13;82.55
72277;SHT30;61204;49.980;8.358;2022-09-23T03:02:28;8.18;82.53
72277;SHT30;61204;49.980;8.358;2022-09-23T03:05:12;8.15;82.77
72277;SHT30;61204;49.980;8.358;2022-09-23T03:11:09;8.28;82.38
72277;SHT30;61204;49.980;8.358;2022-09-23T03:14:08;8.21;82.80
72277;SHT30;61204;49.980;8.358;2022-09-23T03:17:05;8.15;82.91
72277;SHT30;61204;49.980;8.358;2022-09-23T03:22:56;8.11;83.35
72277;SHT30;61204;49.980;8.358;2022-09-23T03:25:30;8.15;83.18
72277;SHT30;61204;49.980;8.358;2022-09-23T03:28:01;8.10;83.14
72277;SHT30;61204;49.980;8.358;2022-09-23T03:30:30;8.03;83.19
72277;SHT30;61204;49.980;8.358;2022-09-23T03:33:07;8.03;83.35
72277;SHT30;61204;49.980;8.358;2022-09-23T03:36:05;7.91;83.64
72277;SHT30;61204;49.980;8.358;2022-09-23T03:38:59;7.86;83.64
72277;SHT30;61204;49.980;8.358;2022-09-23T03:41:37;7.82;83.77
72277;SHT30;61204;49.980;8.358;2022-09-23T03:44:10;7.79;83.85
72277;SHT30;61204;49.980;8.358;2022-09-23T03:46:36;7.82;83.94
72277;SHT30;61204;49.980;8.358;2022-09-23T03:49:16;7.79;83.87
72277;SHT30;61204;49.980;8.358;2022-09-23T03:51:55;7.68;83.94
72277;SHT30;61204;49.980;8.358;2022-09-23T03:54:21;7.61;84.20
72277;SHT30;61204;49.980;8.358;2022-09-23T03:56:47;7.58;84.04
72277;SHT30;61204;49.980;8.358;2022-09-23T03:59:17;7.56;84.52
72277;SHT30;61204;49.980;8.358;2022-09-23T04:01:43;7.54;84.75
72277;SHT30;61204;49.980;8.358;2022-09-23T04:04:10;7.47;84.73
72277;SHT30;61204;49.980;8.358;2022-09-23T04:06:36;7.45;85.02
72277;SHT30;61204;49.980;8.358;2022-09-23T04:09:02;7.44;85.14
72277;SHT30;61204;49.980;8.358;2022-09-23T04:11:28;7.41;85.02
72277;SHT30;61204;49.980;8.358;2022-09-23T04:13:57;7.34;85.21
72277;SHT30;61204;49.980;8.358;2022-09-23T04:16:23;7.32;85.63
72277;SHT30;61204;49.980;8.358;2022-09-23T04:18:49;7.35;85.45
72277;SHT30;61204;49.980;8.358;2022-09-23T04:21:16;7.28;85.52
72277;SHT30;61204;49.980;8.358;2022-09-23T04:23:42;7.23;85.67
72277;SHT30;61204;49.980;8.358;2022-09-23T04:26:08;7.18;85.82
72277;SHT30;61204;49.980;8.358;2022-09-23T04:28:34;7.18;86.00
72277;SHT30;61204;49.980;8.358;2022-09-23T04:31:07;7.18;86.43
72277;SHT30;61204;49.980;8.358;2022-09-23T04:33:34;7.25;86.25
72277;SHT30;61204;49.980;8.358;2022-09-23T04:36:00;7.30;86.13
72277;SHT30;61204;49.980;8.358;2022-09-23T04:38:26;7.31;86.23
72277;SHT30;61204;49.980;8.358;2022-09-23T04:40:51;7.28;85.92
72277;SHT30;61204;49.980;8.358;2022-09-23T04:43:17;7.32;85.91
72277;SHT30;61204;49.980;8.358;2022-09-23T04:45:44;7.38;85.77
72277;SHT30;61204;49.980;8.358;2022-09-23T04:48:10;7.48;85.59
72277;SHT30;61204;49.980;8.358;2022-09-23T04:50:38;7.62;85.31
72277;SHT30;61204;49.980;8.358;2022-09-23T04:53:04;7.72;84.39
72277;SHT30;61204;49.980;8.358;2022-09-23T04:55:30;7.85;83.53
72277;SHT30;61204;49.980;8.358;2022-09-23T04:57:56;7.93;83.41
72277;SHT30;61204;49.980;8.358;2022-09-23T05:00:23;8.05;82.89
72277;SHT30;61204;49.980;8.358;2022-09-23T05:02:52;8.04;82.66
72277;SHT30;61204;49.980;8.358;2022-09-23T05:05:18;8.03;82.84
72277;SHT30;61204;49.980;8.358;2022-09-23T05:07:49;8.01;83.02
72277;SHT30;61204;49.980;8.358;2022-09-23T05:10:16;8.04;82.84
72277;SHT30;61204;49.980;8.358;2022-09-23T05:12:42;8.01;83.07
72277;SHT30;61204;49.980;8.358;2022-09-23T05:15:09;8.00;83.07
72277;SHT30;61204;49.980;8.358;2022-09-23T05:17:39;7.97;83.35
72277;SHT30;61204;49.980;8.358;2022-09-23T05:20:08;7.97;83.37
72277;SHT30;61204;49.980;8.358;2022-09-23T05:22:35;7.94;83.30
72277;SHT30;61204;49.980;8.358;2022-09-23T05:25:02;7.91;83.45
72277;SHT30;61204;49.980;8.358;2022-09-23T05:27:28;7.98;83.48
72277;SHT30;61204;49.980;8.358;2022-09-23T05:29:54;8.18;83.16
72277;SHT30;61204;49.980;8.358;2022-09-23T05:32:20;8.37;82.68
72277;SHT30;61204;49.980;8.358;2022-09-23T05:34:46;8.51;82.09
72277;SHT30;61204;49.980;8.358;2022-09-23T05:37:12;8.63;81.99
72277;SHT30;61204;49.980;8.358;2022-09-23T05:39:37;8.84;81.15
72277;SHT30;61204;49.980;8.358;2022-09-23T05:42:03;9.10;79.99
72277;SHT30;61204;49.980;8.358;2022-09-23T05:44:29;9.20;79.11
72277;SHT30;61204;49.980;8.358;2022-09-23T05:46:55;9.21;79.35
72277;SHT30;61204;49.980;8.358;2022-09-23T05:49:21;9.25;79.46
72277;SHT30;61204;49.980;8.358;2022-09-23T05:51:46;9.34;79.29
72277;SHT30;61204;49.980;8.358;2022-09-23T05:54:12;9.31;78.96
72277;SHT30;61204;49.980;8.358;2022-09-23T05:56:38;9.27;79.24
72277;SHT30;61204;49.980;8.358;2022-09-23T05:59:05;9.32;79.27
72277;SHT30;61204;49.980;8.358;2022-09-23T06:01:33;9.42;78.82
72277;SHT30;61204;49.980;8.358;2022-09-23T06:04:03;9.53;78.85
72277;SHT30;61204;49.980;8.358;2022-09-23T06:06:39;9.56;78.16
72277;SHT30;61204;49.980;8.358;2022-09-23T06:09:08;9.62;77.37
72277;SHT30;61204;49.980;8.358;2022-09-23T06:11:36;9.75;77.31
72277;SHT30;61204;49.980;8.358;2022-09-23T06:14:03;9.73;76.94
72277;SHT30;61204;49.980;8.358;2022-09-23T06:16:33;9.63;77.59
72277;SHT30;61204;49.980;8.358;2022-09-23T06:19:00;9.56;77.50
72277;SHT30;61204;49.980;8.358;2022-09-23T06:21:30;9.59;77.73
72277;SHT30;61204;49.980;8.358;2022-09-23T06:23:58;9.60;77.47
72277;SHT30;61204;49.980;8.358;2022-09-23T06:26:25;9.65;78.06
72277;SHT30;61204;49.980;8.358;2022-09-23T06:28:51;9.69;77.50
72277;SHT30;61204;49.980;8.358;2022-09-23T06:31:17;9.69;77.48
72277;SHT30;61204;49.980;8.358;2022-09-23T06:33:44;9.80;77.15
72277;SHT30;61204;49.980;8.358;2022-09-23T06:36:12;9.85;76.82
72277;SHT30;61204;49.980;8.358;2022-09-23T06:38:41;9.85;76.78
72277;SHT30;61204;49.980;8.358;2022-09-23T06:41:14;9.97;76.22
72277;SHT30;61204;49.980;8.358;2022-09-23T06:43:40;9.93;76.82
72277;SHT30;61204;49.980;8.358;2022-09-23T06:46:07;10.03;76.87
72277;SHT30;61204;49.980;8.358;2022-09-23T06:48:37;10.11;76.38
72277;SHT30;61204;49.980;8.358;2022-09-23T06:51:04;10.14;75.67
72277;SHT30;61204;49.980;8.358;2022-09-23T06:53:31;10.28;76.03
72277;SHT30;61204;49.980;8.358;2022-09-23T06:56:05;10.34;75.21
72277;SHT30;61204;49.980;8.358;2022-09-23T06:58:35;10.50;75.21
72277;SHT30;61204;49.980;8.358;2022-09-23T07:01:08;10.58;74.76
72277;SHT30;61204;49.980;8.358;2022-09-23T07:03:37;10.76;74.67
72277;SHT30;61204;49.980;8.358;2022-09-23T07:06:05;10.90;72.96
72277;SHT30;61204;49.980;8.358;2022-09-23T07:08:34;11.00;72.71
72277;SHT30;61204;49.980;8.358;2022-09-23T07:11:05;11.15;72.01
72277;SHT30;61204;49.980;8.358;2022-09-23T07:13:32;11.20;71.76
72277;SHT30;61204;49.980;8.358;2022-09-23T07:16:00;11.34;71.44
72277;SHT30;61204;49.980;8.358;2022-09-23T07:18:29;11.39;71.04
72277;SHT30;61204;49.980;8.358;2022-09-23T07:21:06;11.51;71.02
72277;SHT30;61204;49.980;8.358;2022-09-23T07:23:43;11.63;70.93
72277;SHT30;61204;49.980;8.358;2022-09-23T07:26:11;11.65;69.83
72277;SHT30;61204;49.980;8.358;2022-09-23T07:28:41;11.83;69.85
72277;SHT30;61204;49.980;8.358;2022-09-23T07:31:14;12.01;69.63
72277;SHT30;61204;49.980;8.358;2022-09-23T07:33:41;12.30;68.43
72277;SHT30;61204;49.980;8.358;2022-09-23T07:36:16;12.63;67.16
72277;SHT30;61204;49.980;8.358;2022-09-23T07:38:46;12.94;66.33
72277;SHT30;61204;49.980;8.358;2022-09-23T07:41:16;12.79;65.70
72277;SHT30;61204;49.980;8.358;2022-09-23T07:43:44;12.49;66.48
72277;SHT30;61204;49.980;8.358;2022-09-23T07:46:15;12.72;66.37
72277;SHT30;61204;49.980;8.358;2022-09-23T07:48:43;13.25;65.19
72277;SHT30;61204;49.980;8.358;2022-09-23T07:51:16;13.80;63.58
72277;SHT30;61204;49.980;8.358;2022-09-23T07:53:51;13.67;63.00
72277;SHT30;61204;49.980;8.358;2022-09-23T07:56:20;14.09;62.60
72277;SHT30;61204;49.980;8.358;2022-09-23T07:58:48;14.83;60.10
72277;SHT30;61204;49.980;8.358;2022-09-23T08:01:38;15.30;58.92
72277;SHT30;61204;49.980;8.358;2022-09-23T08:04:12;15.80;58.18
72277;SHT30;61204;49.980;8.358;2022-09-23T08:06:51;16.42;55.13
72277;SHT30;61204;49.980;8.358;2022-09-23T08:09:35;16.66;54.40
72277;SHT30;61204;49.980;8.358;2022-09-23T08:12:11;17.00;53.50
72277;SHT30;61204;49.980;8.358;2022-09-23T08:14:40;17.21;53.38
72277;SHT30;61204;49.980;8.358;2022-09-23T08:17:06;17.65;52.42
72277;SHT30;61204;49.980;8.358;2022-09-23T08:19:33;17.90;52.04
72277;SHT30;61204;49.980;8.358;2022-09-23T08:21:58;17.78;51.70
72277;SHT30;61204;49.980;8.358;2022-09-23T08:24:25;17.71;51.50
72277;SHT30;61204;49.980;8.358;2022-09-23T08:26:53;17.62;51.98
72277;SHT30;61204;49.980;8.358;2022-09-23T08:29:23;18.04;51.17
72277;SHT30;61204;49.980;8.358;2022-09-23T08:31:51;18.13;50.85
72277;SHT30;61204;49.980;8.358;2022-09-23T08:34:19;17.71;50.95
72277;SHT30;61204;49.980;8.358;2022-09-23T08:36:48;17.14;52.79
72277;SHT30;61204;49.980;8.358;2022-09-23T08:39:20;17.66;52.35
72277;SHT30;61204;49.980;8.358;2022-09-23T08:44:52;19.38;47.41
72277;SHT30;61204;49.980;8.358;2022-09-23T08:50:21;19.04;47.11
72277;SHT30;61204;49.980;8.358;2022-09-23T08:53:02;19.34;47.54
72277;SHT30;61204;49.980;8.358;2022-09-23T08:55:41;19.25;47.55
72277;SHT30;61204;49.980;8.358;2022-09-23T09:01:52;20.28;44.67
72277;SHT30;61204;49.980;8.358;2022-09-23T09:09:46;21.41;43.38
72277;SHT30;61204;49.980;8.358;2022-09-23T09:12:44;21.35;42.42
72277;SHT30;61204;49.980;8.358;2022-09-23T09:15:20;21.00;43.35
72277;SHT30;61204;49.980;8.358;2022-09-23T09:18:10;21.08;43.42
72277;SHT30;61204;49.980;8.358;2022-09-23T09:21:11;21.74;42.52
72277;SHT30;61204;49.980;8.358;2022-09-23T09:23:58;21.86;42.01
72277;SHT30;61204;49.980;8.358;2022-09-23T09:26:32;20.96;44.02
72277;SHT30;61204;49.980;8.358;2022-09-23T09:29:19;21.96;41.12
72277;SHT30;61204;49.980;8.358;2022-09-23T09:31:56;22.72;41.00
72277;SHT30;61204;49.980;8.358;2022-09-23T09:34:48;23.07;40.41
72277;SHT30;61204;49.980;8.358;2022-09-23T09:37:40;22.73;41.03
72277;SHT30;61204;49.980;8.358;2022-09-23T09:40:12;22.37;40.63
72277;SHT30;61204;49.980;8.358;2022-09-23T09:42:46;22.64;39.54
72277;SHT30;61204;49.980;8.358;2022-09-23T09:45:55;21.75;41.23
72277;SHT30;61204;49.980;8.358;2022-09-23T09:48:36;22.09;40.49
72277;SHT30;61204;49.980;8.358;2022-09-23T09:51:26;22.98;38.88
72277;SHT30;61204;49.980;8.358;2022-09-23T09:54:15;22.59;40.06
72277;SHT30;61204;49.980;8.358;2022-09-23T09:56:54;22.61;39.13
72277;SHT30;61204;49.980;8.358;2022-09-23T09:59:28;23.38;38.10
72277;SHT30;61204;49.980;8.358;2022-09-23T10:02:32;22.78;39.87
72277;SHT30;61204;49.980;8.358;2022-09-23T10:05:06;22.33;39.97
72277;SHT30;61204;49.980;8.358;2022-09-23T10:08:36;23.21;38.77
72277;SHT30;61204;49.980;8.358;2022-09-23T10:11:22;23.68;37.73
72277;SHT30;61204;49.980;8.358;2022-09-23T10:14:20;23.85;38.78
72277;SHT30;61204;49.980;8.358;2022-09-23T10:17:03;23.28;39.25
72277;SHT30;61204;49.980;8.358;2022-09-23T10:19:37;22.04;41.29
72277;SHT30;61204;49.980;8.358;2022-09-23T10:22:23;22.93;40.87
72277;SHT30;61204;49.980;8.358;2022-09-23T10:25:00;23.90;39.37
72277;SHT30;61204;49.980;8.358;2022-09-23T10:27:35;24.50;37.68
72277;SHT30;61204;49.980;8.358;2022-09-23T10:30:31;24.31;36.91
72277;SHT30;61204;49.980;8.358;2022-09-23T10:34:33;24.19;38.30
72277;SHT30;61204;49.980;8.358;2022-09-23T10:37:45;24.43;37.82
72277;SHT30;61204;49.980;8.358;2022-09-23T12:46:45;25.44;37.54
72277;SHT30;61204;49.980;8.358;2022-09-23T12:49:41;25.40;37.70
72277;SHT30;61204;49.980;8.358;2022-09-23T12:54:44;25.95;37.70
72277;SHT30;61204;49.980;8.358;2022-09-23T13:05:57;24.72;39.86
72277;SHT30;61204;49.980;8.358;2022-09-23T13:08:45;24.83;39.17
72277;SHT30;61204;49.980;8.358;2022-09-23T13:11:24;24.48;40.15
72277;SHT30;61204;49.980;8.358;2022-09-23T13:13:55;24.10;39.81
72277;SHT30;61204;49.980;8.358;2022-09-23T13:16:35;24.24;40.02
72277;SHT30;61204;49.980;8.358;2022-09-23T13:27:02;23.59;41.58
72277;SHT30;61204;49.980;8.358;2022-09-23T13:32:37;23.16;43.33
72277;SHT30;61204;49.980;8.358;2022-09-23T13:37:56;22.95;44.45
72277;SHT30;61204;49.980;8.358;2022-09-23T13:40:27;22.73;43.95
72277;SHT30;61204;49.980;8.358;2022-09-23T13:43:06;22.76;43.53
72277;SHT30;61204;49.980;8.358;2022-09-23T13:45:40;23.03;43.76
72277;SHT30;61204;49.980;8.358;2022-09-23T13:48:18;22.89;44.81
72277;SHT30;61204;49.980;8.358;2022-09-23T13:50:50;22.82;43.98
72277;SHT30;61204;49.980;8.358;2022-09-23T13:53:31;22.65;44.30
72277;SHT30;61204;49.980;8.358;2022-09-23T13:56:12;22.92;43.68
72277;SHT30;61204;49.980;8.358;2022-09-23T13:58:39;23.27;42.44
72277;SHT30;61204;49.980;8.358;2022-09-23T14:01:29;23.86;41.34
72277;SHT30;61204;49.980;8.358;2022-09-23T14:04:00;23.93;41.00
72277;SHT30;61204;49.980;8.358;2022-09-23T14:06:30;24.47;40.06
72277;SHT30;61204;49.980;8.358;2022-09-23T14:09:10;24.82;38.46
72277;SHT30;61204;49.980;8.358;2022-09-23T14:11:38;24.79;39.60
72277;SHT30;61204;49.980;8.358;2022-09-23T14:14:04;24.55;39.88
72277;SHT30;61204;49.980;8.358;2022-09-23T14:16:37;24.26;39.82
72277;SHT30;61204;49.980;8.358;2022-09-23T14:19:04;23.93;39.17
72277;SHT30;61204;49.980;8.358;2022-09-23T14:21:37;23.75;39.81
72277;SHT30;61204;49.980;8.358;2022-09-23T14:24:20;23.88;40.52
72277;SHT30;61204;49.980;8.358;2022-09-23T14:27:00;24.27;40.40
72277;SHT30;61204;49.980;8.358;2022-09-23T14:29:36;23.89;40.56
72277;SHT30;61204;49.980;8.358;2022-09-23T14:32:13;24.81;38.15
72277;SHT30;61204;49.980;8.358;2022-09-23T14:35:13;25.00;38.61
72277;SHT30;61204;49.980;8.358;2022-09-23T14:37:45;24.63;39.00
72277;SHT30;61204;49.980;8.358;2022-09-23T14:40:52;24.03;39.75
72277;SHT30;61204;49.980;8.358;2022-09-23T14:43:56;24.53;39.70
72277;SHT30;61204;49.980;8.358;2022-09-23T14:46:30;24.60;39.64
72277;SHT30;61204;49.980;8.358;2022-09-23T14:49:04;24.34;39.12
72277;SHT30;61204;49.980;8.358;2022-09-23T14:54:49;23.55;40.35
72277;SHT30;61204;49.980;8.358;2022-09-23T14:57:25;23.59;41.33
72277;SHT30;61204;49.980;8.358;2022-09-23T15:00:17;23.74;40.14
72277;SHT30;61204;49.980;8.358;2022-09-23T15:03:02;23.30;40.43
72277;SHT30;61204;49.980;8.358;2022-09-23T15:05:44;22.52;41.28
72277;SHT30;61204;49.980;8.358;2022-09-23T15:08:19;23.02;41.45
72277;SHT30;61204;49.980;8.358;2022-09-23T15:10:49;22.95;41.41
72277;SHT30;61204;49.980;8.358;2022-09-23T15:13:25;23.46;40.84
72277;SHT30;61204;49.980;8.358;2022-09-23T15:15:56;23.46;40.67
72277;SHT30;61204;49.980;8.358;2022-09-23T15:18:30;23.04;42.29
72277;SHT30;61204;49.980;8.358;2022-09-23T15:21:11;22.61;42.99
72277;SHT30;61204;49.980;8.358;2022-09-23T15:23:44;22.61;42.61
72277;SHT30;61204;49.980;8.358;2022-09-23T17:20:11;17.79;60.80
72277;SHT30;61204;49.980;8.358;2022-09-23T17:22:41;17.76;61.73
72277;SHT30;61204;49.980;8.358;2022-09-23T17:25:08;17.65;62.40
72277;SHT30;61204;49.980;8.358;2022-09-23T17:27:38;17.51;62.01
72277;SHT30;61204;49.980;8.358;2022-09-23T17:30:05;17.24;62.71
72277;SHT30;61204;49.980;8.358;2022-09-23T17:32:31;17.10;63.46
72277;SHT30;61204;49.980;8.358;2022-09-23T17:34:57;17.02;64.15
72277;SHT30;61204;49.980;8.358;2022-09-23T17:37:29;16.87;64.83
72277;SHT30;61204;49.980;8.358;2022-09-23T17:39:56;16.84;65.48
72277;SHT30;61204;49.980;8.358;2022-09-23T17:42:22;16.82;65.53
72277;SHT30;61204;49.980;8.358;2022-09-23T17:44:48;16.82;65.58
72277;SHT30;61204;49.980;8.358;2022-09-23T17:47:13;16.79;65.06
72277;SHT30;61204;49.980;8.358;2022-09-23T17:49:39;16.76;64.80
72277;SHT30;61204;49.980;8.358;2022-09-23T17:52:05;16.71;66.07
72277;SHT30;61204;49.980;8.358;2022-09-23T17:54:32;16.65;65.79
72277;SHT30;61204;49.980;8.358;2022-09-23T17:56:58;16.56;66.37
72277;SHT30;61204;49.980;8.358;2022-09-23T17:59:24;16.45;66.89
72277;SHT30;61204;49.980;8.358;2022-09-23T18:01:51;16.37;68.85
72277;SHT30;61204;49.980;8.358;2022-09-23T18:04:17;16.29;68.73
72277;SHT30;61204;49.980;8.358;2022-09-23T18:06:42;16.22;67.85
72277;SHT30;61204;49.980;8.358;2022-09-23T18:09:08;16.13;67.50
72277;SHT30;61204;49.980;8.358;2022-09-23T18:11:41;16.03;67.44
72277;SHT30;61204;49.980;8.358;2022-09-23T18:14:16;15.93;68.19
72277;SHT30;61204;49.980;8.358;2022-09-23T18:16:49;15.80;69.41
72277;SHT30;61204;49.980;8.358;2022-09-23T18:19:19;15.65;71.29
72277;SHT30;61204;49.980;8.358;2022-09-23T18:21:50;15.61;70.64
72277;SHT30;61204;49.980;8.358;2022-09-23T18:24:19;15.48;71.88
72277;SHT30;61204;49.980;8.358;2022-09-23T18:26:46;15.44;72.01
72277;SHT30;61204;49.980;8.358;2022-09-23T18:29:14;15.34;72.18
72277;SHT30;61204;49.980;8.358;2022-09-23T18:31:41;15.32;71.19
72277;SHT30;61204;49.980;8.358;2022-09-23T18:34:13;15.26;71.70
72277;SHT30;61204;49.980;8.358;2022-09-23T18:36:46;15.21;71.79
72277;SHT30;61204;49.980;8.358;2022-09-23T18:39:14;15.18;72.28
72277;SHT30;61204;49.980;8.358;2022-09-23T18:41:40;15.07;72.52
72277;SHT30;61204;49.980;8.358;2022-09-23T18:44:05;15.03;72.85
72277;SHT30;61204;49.980;8.358;2022-09-23T18:46:31;14.99;73.03
72277;SHT30;61204;49.980;8.358;2022-09-23T18:48:58;14.93;73.43
72277;SHT30;61204;49.980;8.358;2022-09-23T18:51:56;14.86;74.42
72277;SHT30;61204;49.980;8.358;2022-09-23T18:54:26;14.77;73.74
72277;SHT30;61204;49.980;8.358;2022-09-23T18:56:53;14.76;74.64
72277;SHT30;61204;49.980;8.358;2022-09-23T18:59:25;14.65;75.04
72277;SHT30;61204;49.980;8.358;2022-09-23T19:01:54;14.62;74.73
72277;SHT30;61204;49.980;8.358;2022-09-23T19:04:24;14.55;76.04
72277;SHT30;61204;49.980;8.358;2022-09-23T19:06:52;14.51;76.31
72277;SHT30;61204;49.980;8.358;2022-09-23T19:09:21;14.48;75.67
72277;SHT30;61204;49.980;8.358;2022-09-23T19:11:49;14.38;75.88
72277;SHT30;61204;49.980;8.358;2022-09-23T19:14:16;14.37;76.65
72277;SHT30;61204;49.980;8.358;2022-09-23T19:16:43;14.34;75.93
72277;SHT30;61204;49.980;8.358;2022-09-23T19:19:09;14.29;76.53
72277;SHT30;61204;49.980;8.358;2022-09-23T19:21:35;14.27;76.49
72277;SHT30;61204;49.980;8.358;2022-09-23T19:24:05;14.27;77.37
72277;SHT30;61204;49.980;8.358;2022-09-23T19:26:38;14.28;77.26
72277;SHT30;61204;49.980;8.358;2022-09-23T19:29:10;14.22;76.22
72277;SHT30;61204;49.980;8.358;2022-09-23T19:31:40;14.17;75.93
72277;SHT30;61204;49.980;8.358;2022-09-23T19:34:16;14.09;75.84
72277;SHT30;61204;49.980;8.358;2022-09-23T19:36:46;14.00;76.18
72277;SHT30;61204;49.980;8.358;2022-09-23T19:39:18;13.93;77.14
72277;SHT30;61204;49.980;8.358;2022-09-23T19:41:46;13.86;77.29
72277;SHT30;61204;49.980;8.358;2022-09-23T19:44:13;13.80;77.58
72277;SHT30;61204;49.980;8.358;2022-09-23T19:46:41;13.70;78.68
72277;SHT30;61204;49.980;8.358;2022-09-23T19:49:11;13.58;78.59
72277;SHT30;61204;49.980;8.358;2022-09-23T19:51:38;13.52;79.43
72277;SHT30;61204;49.980;8.358;2022-09-23T19:54:05;13.41;80.05
72277;SHT30;61204;49.980;8.358;2022-09-23T19:56:33;13.32;80.00
72277;SHT30;61204;49.980;8.358;2022-09-23T19:59:02;13.27;80.25
72277;SHT30;61204;49.980;8.358;2022-09-23T20:01:32;13.18;80.91
72277;SHT30;61204;49.980;8.358;2022-09-23T20:03:59;13.12;81.36
72277;SHT30;61204;49.980;8.358;2022-09-23T20:06:30;13.08;80.54
72277;SHT30;61204;49.980;8.358;2022-09-23T20:08:58;13.04;81.59
72277;SHT30;61204;49.980;8.358;2022-09-23T20:11:28;13.00;81.19
72277;SHT30;61204;49.980;8.358;2022-09-23T20:13:58;12.94;81.36
72277;SHT30;61204;49.980;8.358;2022-09-23T20:16:29;12.89;81.12
72277;SHT30;61204;49.980;8.358;2022-09-23T20:18:57;12.87;81.17
72277;SHT30;61204;49.980;8.358;2022-09-23T20:21:25;12.80;81.49
72277;SHT30;61204;49.980;8.358;2022-09-23T20:23:52;12.77;82.02
72277;SHT30;61204;49.980;8.358;2022-09-23T20:26:18;12.72;82.25
72277;SHT30;61204;49.980;8.358;2022-09-23T20:29:02;12.67;82.34
72277;SHT30;61204;49.980;8.358;2022-09-23T20:31:29;12.65;82.49
72277;SHT30;61204;49.980;8.358;2022-09-23T20:33:56;12.62;82.63
72277;SHT30;61204;49.980;8.358;2022-09-23T20:36:28;12.60;82.75
72277;SHT30;61204;49.980;8.358;2022-09-23T20:38:55;12.59;82.64
72277;SHT30;61204;49.980;8.358;2022-09-23T20:41:33;12.55;83.12
72277;SHT30;61204;49.980;8.358;2022-09-23T20:44:03;12.55;83.06
72277;SHT30;61204;49.980;8.358;2022-09-23T20:46:30;12.53;83.47
72277;SHT30;61204;49.980;8.358;2022-09-23T20:48:58;12.46;83.49
72277;SHT30;61204;49.980;8.358;2022-09-23T20:51:24;12.44;83.67
72277;SHT30;61204;49.980;8.358;2022-09-23T20:53:51;12.38;83.89
72277;SHT30;61204;49.980;8.358;2022-09-23T20:56:21;12.31;84.42
72277;SHT30;61204;49.980;8.358;2022-09-23T20:58:47;12.22;84.95
72277;SHT30;61204;49.980;8.358;2022-09-23T21:01:15;12.18;85.27
72277;SHT30;61204;49.980;8.358;2022-09-23T21:03:44;12.11;85.63
72277;SHT30;61204;49.980;8.358;2022-09-23T21:06:16;12.05;85.63
72277;SHT30;61204;49.980;8.358;2022-09-23T21:08:45;11.97;85.64
72277;SHT30;61204;49.980;8.358;2022-09-23T21:11:15;11.87;86.01
72277;SHT30;61204;49.980;8.358;2022-09-23T21:13:46;11.80;85.64
72277;SHT30;61204;49.980;8.358;2022-09-23T21:16:17;11.76;85.88
72277;SHT30;61204;49.980;8.358;2022-09-23T21:18:44;11.73;86.12
72277;SHT30;61204;49.980;8.358;2022-09-23T21:21:11;11.70;86.69